sensor_id;sensor_type;location;lat;lon;timestamp;temperature;humidity
37426;DHT22;23285;50.180;7.036;2022-08-11T00:01:54;20.90;67.30
37426;DHT22;23285;50.180;7.036;2022-08-11T00:04:41;20.70;67.00
37426;DHT22;23285;50.180;7.036;2022-08-11T00:07:26;20.70;65.40
37426;DHT22;23285;50.180;7.036;2022-08-11T00:10:23;20.70;67.20
37426;DHT22;23285;50.180;7.036;2022-08-11T00:13:08;20.90;68.30
37426;DHT22;23285;50.180;7.036;2022-08-11T00:15:54;20.70;65.70
37426;DHT22;23285;50.180;7.036;2022-08-11T00:18:44;20.90;65.20
37426;DHT22;23285;50.180;7.036;2022-08-11T00:21:31;20.60;68.00
37426;DHT22;23285;50.180;7.036;2022-08-11T00:24:24;20.40;68.60
37426;DHT22;23285;50.180;7.036;2022-08-11T00:27:15;20.30;68.80
37426;DHT22;23285;50.180;7.036;2022-08-11T00:30:03;20.50;66.90
37426;DHT22;23285;50.180;7.036;2022-08-11T00:38:28;20.60;68.80
37426;DHT22;23285;50.180;7.036;2022-08-11T00:48:22;20.40;69.00
37426;DHT22;23285;50.180;7.036;2022-08-11T00:54:08;20.60;69.00
37426;DHT22;23285;50.180;7.036;2022-08-11T01:00:14;20.90;69.20
37426;DHT22;23285;50.180;7.036;2022-08-11T01:06:00;21.00;68.80
37426;DHT22;23285;50.180;7.036;2022-08-11T01:15:57;20.50;69.60
37426;DHT22;23285;50.180;7.036;2022-08-11T01:34:12;21.10;67.50
37426;DHT22;23285;50.180;7.036;2022-08-11T01:43:38;21.10;69.50
37426;DHT22;23285;50.180;7.036;2022-08-11T01:50:43;20.90;70.00
37426;DHT22;23285;50.180;7.036;2022-08-11T02:00:06;20.70;69.60
37426;DHT22;23285;50.180;7.036;2022-08-11T02:08:53;20.60;69.10
37426;DHT22;23285;50.180;7.036;2022-08-11T02:11:39;20.80;68.80
37426;DHT22;23285;50.180;7.036;2022-08-11T02:14:38;20.10;70.40
37426;DHT22;23285;50.180;7.036;2022-08-11T02:20:50;20.10;71.30
37426;DHT22;23285;50.180;7.036;2022-08-11T02:24:02;19.70;71.60
37426;DHT22;23285;50.180;7.036;2022-08-11T02:26:54;19.30;73.00
37426;DHT22;23285;50.180;7.036;2022-08-11T02:30:06;19.40;73.20
37426;DHT22;23285;50.180;7.036;2022-08-11T02:33:21;19.30;73.40
37426;DHT22;23285;50.180;7.036;2022-08-11T02:36:19;19.40;73.00
37426;DHT22;23285;50.180;7.036;2022-08-11T02:45:44;19.10;73.30
37426;DHT22;23285;50.180;7.036;2022-08-11T02:49:04;19.20;73.60
37426;DHT22;23285;50.180;7.036;2022-08-11T03:01:40;19.30;72.90
37426;DHT22;23285;50.180;7.036;2022-08-11T03:17:56;19.30;74.90
37426;DHT22;23285;50.180;7.036;2022-08-11T03:24:01;19.40;73.40
37426;DHT22;23285;50.180;7.036;2022-08-11T03:42:49;18.80;74.80
37426;DHT22;23285;50.180;7.036;2022-08-11T03:48:59;18.70;75.30
37426;DHT22;23285;50.180;7.036;2022-08-11T03:58:40;18.80;75.50
37426;DHT22;23285;50.180;7.036;2022-08-11T04:12:52;19.10;74.90
37426;DHT22;23285;50.180;7.036;2022-08-11T04:15:12;19.00;75.30
37426;DHT22;23285;50.180;7.036;2022-08-11T04:27:34;19.00;75.70
37426;DHT22;23285;50.180;7.036;2022-08-11T04:30:28;19.10;76.30
37426;DHT22;23285;50.180;7.036;2022-08-11T04:33:36;19.10;76.10
37426;DHT22;23285;50.180;7.036;2022-08-11T04:46:38;18.90;76.70
37426;DHT22;23285;50.180;7.036;2022-08-11T04:59:34;19.10;76.20
37426;DHT22;23285;50.180;7.036;2022-08-11T05:06:51;18.70;78.00
37426;DHT22;23285;50.180;7.036;2022-08-11T05:09:30;18.60;77.50
37426;DHT22;23285;50.180;7.036;2022-08-11T05:12:24;18.90;76.70
37426;DHT22;23285;50.180;7.036;2022-08-11T05:15:18;18.80;77.10
37426;DHT22;23285;50.180;7.036;2022-08-11T05:18:24;18.70;76.90
37426;DHT22;23285;50.180;7.036;2022-08-11T05:21:29;18.50;77.20
37426;DHT22;23285;50.180;7.036;2022-08-11T05:24:49;18.60;77.90
37426;DHT22;23285;50.180;7.036;2022-08-11T05:28:12;18.60;78.20
37426;DHT22;23285;50.180;7.036;2022-08-11T05:34:49;19.10;78.00
37426;DHT22;23285;50.180;7.036;2022-08-11T05:37:42;19.20;77.80
37426;DHT22;23285;50.180;7.036;2022-08-11T05:40:50;19.60;76.90
37426;DHT22;23285;50.180;7.036;2022-08-11T05:47:01;19.90;77.20
37426;DHT22;23285;50.180;7.036;2022-08-11T05:50:08;19.70;76.60
37426;DHT22;23285;50.180;7.036;2022-08-11T05:53:14;19.80;76.80
37426;DHT22;23285;50.180;7.036;2022-08-11T05:56:18;19.80;77.10
37426;DHT22;23285;50.180;7.036;2022-08-11T05:59:04;19.80;76.60
37426;DHT22;23285;50.180;7.036;2022-08-11T06:04:35;20.30;76.60
37426;DHT22;23285;50.180;7.036;2022-08-11T06:10:12;20.80;74.50
37426;DHT22;23285;50.180;7.036;2022-08-11T06:12:59;20.70;75.20
37426;DHT22;23285;50.180;7.036;2022-08-11T06:15:46;20.50;76.10
37426;DHT22;23285;50.180;7.036;2022-08-11T06:18:32;20.60;76.10
37426;DHT22;23285;50.180;7.036;2022-08-11T06:21:17;20.90;73.60
37426;DHT22;23285;50.180;7.036;2022-08-11T06:24:09;21.00;73.20
37426;DHT22;23285;50.180;7.036;2022-08-11T06:26:55;21.20;73.80
37426;DHT22;23285;50.180;7.036;2022-08-11T06:29:49;21.40;71.90
37426;DHT22;23285;50.180;7.036;2022-08-11T06:35:49;21.40;72.80
37426;DHT22;23285;50.180;7.036;2022-08-11T06:42:04;21.60;72.30
37426;DHT22;23285;50.180;7.036;2022-08-11T06:48:20;21.80;71.50
37426;DHT22;23285;50.180;7.036;2022-08-11T06:51:09;22.10;71.70
37426;DHT22;23285;50.180;7.036;2022-08-11T06:54:00;22.40;70.50
37426;DHT22;23285;50.180;7.036;2022-08-11T06:56:46;22.40;71.00
37426;DHT22;23285;50.180;7.036;2022-08-11T06:59:50;22.50;70.90
37426;DHT22;23285;50.180;7.036;2022-08-11T07:03:06;22.40;70.80
37426;DHT22;23285;50.180;7.036;2022-08-11T07:05:57;22.30;70.10
37426;DHT22;23285;50.180;7.036;2022-08-11T07:12:49;22.60;71.30
37426;DHT22;23285;50.180;7.036;2022-08-11T07:15:55;23.10;69.60
37426;DHT22;23285;50.180;7.036;2022-08-11T07:21:50;23.30;69.60
37426;DHT22;23285;50.180;7.036;2022-08-11T07:25:01;23.50;68.20
37426;DHT22;23285;50.180;7.036;2022-08-11T07:28:27;23.50;68.60
37426;DHT22;23285;50.180;7.036;2022-08-11T07:31:37;23.60;69.10
37426;DHT22;23285;50.180;7.036;2022-08-11T07:34:33;23.30;68.00
37426;DHT22;23285;50.180;7.036;2022-08-11T07:37:20;23.40;67.90
37426;DHT22;23285;50.180;7.036;2022-08-11T07:40:07;23.40;68.20
37426;DHT22;23285;50.180;7.036;2022-08-11T07:42:54;23.20;69.30
37426;DHT22;23285;50.180;7.036;2022-08-11T07:48:48;23.70;69.70
37426;DHT22;23285;50.180;7.036;2022-08-11T07:51:53;24.20;67.10
37426;DHT22;23285;50.180;7.036;2022-08-11T07:55:03;23.90;67.50
37426;DHT22;23285;50.180;7.036;2022-08-11T08:00:56;24.00;68.10
37426;DHT22;23285;50.180;7.036;2022-08-11T08:07:04;24.40;66.10
37426;DHT22;23285;50.180;7.036;2022-08-11T08:13:12;24.90;65.70
37426;DHT22;23285;50.180;7.036;2022-08-11T08:16:17;24.60;65.30
37426;DHT22;23285;50.180;7.036;2022-08-11T08:19:21;24.90;66.00
37426;DHT22;23285;50.180;7.036;2022-08-11T08:22:07;24.90;66.00
37426;DHT22;23285;50.180;7.036;2022-08-11T08:24:52;25.20;63.40
37426;DHT22;23285;50.180;7.036;2022-08-11T08:27:40;25.40;63.40
37426;DHT22;23285;50.180;7.036;2022-08-11T08:30:28;25.60;63.60
37426;DHT22;23285;50.180;7.036;2022-08-11T08:33:34;25.70;63.30
37426;DHT22;23285;50.180;7.036;2022-08-11T08:36:21;25.90;63.20
37426;DHT22;23285;50.180;7.036;2022-08-11T08:39:07;25.90;61.30
37426;DHT22;23285;50.180;7.036;2022-08-11T08:44:42;26.10;64.20
37426;DHT22;23285;50.180;7.036;2022-08-11T08:47:29;26.30;63.60
37426;DHT22;23285;50.180;7.036;2022-08-11T08:50:16;26.10;62.50
37426;DHT22;23285;50.180;7.036;2022-08-11T08:53:05;26.30;61.80
37426;DHT22;23285;50.180;7.036;2022-08-11T08:58:41;26.50;62.10
37426;DHT22;23285;50.180;7.036;2022-08-11T09:07:13;26.20;62.60
37426;DHT22;23285;50.180;7.036;2022-08-11T09:12:45;26.50;63.10
37426;DHT22;23285;50.180;7.036;2022-08-11T09:15:32;26.90;59.90
37426;DHT22;23285;50.180;7.036;2022-08-11T09:18:18;27.00;58.40
37426;DHT22;23285;50.180;7.036;2022-08-11T09:21:04;27.20;59.60
37426;DHT22;23285;50.180;7.036;2022-08-11T09:23:50;27.30;58.50
37426;DHT22;23285;50.180;7.036;2022-08-11T09:26:55;27.30;60.60
37426;DHT22;23285;50.180;7.036;2022-08-11T09:32:30;27.70;60.70
37426;DHT22;23285;50.180;7.036;2022-08-11T09:35:20;27.80;59.30
37426;DHT22;23285;50.180;7.036;2022-08-11T09:38:05;28.10;57.30
37426;DHT22;23285;50.180;7.036;2022-08-11T09:41:12;28.10;57.60
37426;DHT22;23285;50.180;7.036;2022-08-11T09:47:03;28.20;58.10
37426;DHT22;23285;50.180;7.036;2022-08-11T09:52:40;28.30;57.10
37426;DHT22;23285;50.180;7.036;2022-08-11T09:55:26;28.40;57.20
37426;DHT22;23285;50.180;7.036;2022-08-11T09:58:12;28.30;55.60
37426;DHT22;23285;50.180;7.036;2022-08-11T10:00:58;28.50;56.70
37426;DHT22;23285;50.180;7.036;2022-08-11T10:03:45;28.20;56.70
37426;DHT22;23285;50.180;7.036;2022-08-11T10:06:33;28.00;56.60
37426;DHT22;23285;50.180;7.036;2022-08-11T10:09:52;27.90;57.20
37426;DHT22;23285;50.180;7.036;2022-08-11T10:12:41;27.90;57.90
37426;DHT22;23285;50.180;7.036;2022-08-11T10:15:30;28.00;57.60
37426;DHT22;23285;50.180;7.036;2022-08-11T10:18:40;28.30;56.20
37426;DHT22;23285;50.180;7.036;2022-08-11T10:21:45;28.70;56.60
37426;DHT22;23285;50.180;7.036;2022-08-11T10:24:51;28.70;56.20
37426;DHT22;23285;50.180;7.036;2022-08-11T10:28:15;28.80;56.40
37426;DHT22;23285;50.180;7.036;2022-08-11T10:34:07;29.00;54.10
37426;DHT22;23285;50.180;7.036;2022-08-11T10:36:53;28.90;54.70
37426;DHT22;23285;50.180;7.036;2022-08-11T10:39:39;29.00;54.50
37426;DHT22;23285;50.180;7.036;2022-08-11T10:42:25;28.90;54.90
37426;DHT22;23285;50.180;7.036;2022-08-11T10:45:36;29.30;55.40
37426;DHT22;23285;50.180;7.036;2022-08-11T10:51:26;29.40;55.10
37426;DHT22;23285;50.180;7.036;2022-08-11T10:57:36;29.70;54.20
37426;DHT22;23285;50.180;7.036;2022-08-11T11:03:25;29.90;54.70
37426;DHT22;23285;50.180;7.036;2022-08-11T11:09:13;29.90;55.10
37426;DHT22;23285;50.180;7.036;2022-08-11T11:12:18;30.10;54.80
37426;DHT22;23285;50.180;7.036;2022-08-11T11:15:23;29.90;54.80
37426;DHT22;23285;50.180;7.036;2022-08-11T11:18:31;29.80;55.40
37426;DHT22;23285;50.180;7.036;2022-08-11T11:21:20;29.60;55.20
37426;DHT22;23285;50.180;7.036;2022-08-11T11:30:03;30.50;52.10
37426;DHT22;23285;50.180;7.036;2022-08-11T11:39:08;30.70;51.80
37426;DHT22;23285;50.180;7.036;2022-08-11T11:42:00;30.80;53.10
37426;DHT22;23285;50.180;7.036;2022-08-11T11:44:47;31.10;51.80
37426;DHT22;23285;50.180;7.036;2022-08-11T11:50:32;31.20;51.50
37426;DHT22;23285;50.180;7.036;2022-08-11T11:53:21;31.30;51.00
37426;DHT22;23285;50.180;7.036;2022-08-11T11:56:07;31.20;51.10
37426;DHT22;23285;50.180;7.036;2022-08-11T11:58:53;31.30;51.80
37426;DHT22;23285;50.180;7.036;2022-08-11T12:01:57;31.30;51.20
37426;DHT22;23285;50.180;7.036;2022-08-11T12:04:44;31.40;50.00
37426;DHT22;23285;50.180;7.036;2022-08-11T12:07:32;31.30;50.40
37426;DHT22;23285;50.180;7.036;2022-08-11T12:13:21;31.70;51.20
37426;DHT22;23285;50.180;7.036;2022-08-11T12:16:25;31.50;51.70
37426;DHT22;23285;50.180;7.036;2022-08-11T12:19:23;31.60;52.10
37426;DHT22;23285;50.180;7.036;2022-08-11T12:22:09;31.60;52.40
37426;DHT22;23285;50.180;7.036;2022-08-11T12:25:14;31.30;51.80
37426;DHT22;23285;50.180;7.036;2022-08-11T12:28:18;31.40;51.40
37426;DHT22;23285;50.180;7.036;2022-08-11T12:34:03;31.40;50.70
37426;DHT22;23285;50.180;7.036;2022-08-11T12:36:54;31.40;50.40
37426;DHT22;23285;50.180;7.036;2022-08-11T12:39:50;31.50;51.30
37426;DHT22;23285;50.180;7.036;2022-08-11T12:42:58;31.60;50.60
37426;DHT22;23285;50.180;7.036;2022-08-11T12:46:06;31.60;51.20
37426;DHT22;23285;50.180;7.036;2022-08-11T12:48:57;31.40;51.90
37426;DHT22;23285;50.180;7.036;2022-08-11T12:54:59;31.70;50.80
37426;DHT22;23285;50.180;7.036;2022-08-11T12:57:47;31.50;50.40
37426;DHT22;23285;50.180;7.036;2022-08-11T13:00:51;31.20;50.30
37426;DHT22;23285;50.180;7.036;2022-08-11T13:03:55;31.10;50.50
37426;DHT22;23285;50.180;7.036;2022-08-11T13:06:59;31.00;49.90
37426;DHT22;23285;50.180;7.036;2022-08-11T13:12:33;31.40;49.70
37426;DHT22;23285;50.180;7.036;2022-08-11T13:21:12;31.90;50.20
37426;DHT22;23285;50.180;7.036;2022-08-11T13:23:58;32.20;49.10
37426;DHT22;23285;50.180;7.036;2022-08-11T13:26:46;32.20;48.90
37426;DHT22;23285;50.180;7.036;2022-08-11T13:29:33;32.20;49.30
37426;DHT22;23285;50.180;7.036;2022-08-11T13:32:20;32.00;48.60
37426;DHT22;23285;50.180;7.036;2022-08-11T13:35:11;32.30;47.40
37426;DHT22;23285;50.180;7.036;2022-08-11T13:40:48;32.30;49.90
37426;DHT22;23285;50.180;7.036;2022-08-11T13:49:05;31.80;50.10
37426;DHT22;23285;50.180;7.036;2022-08-11T13:51:53;32.10;48.40
37426;DHT22;23285;50.180;7.036;2022-08-11T13:57:26;32.40;48.50
37426;DHT22;23285;50.180;7.036;2022-08-11T14:00:13;32.40;46.80
37426;DHT22;23285;50.180;7.036;2022-08-11T14:02:58;32.10;46.80
37426;DHT22;23285;50.180;7.036;2022-08-11T14:05:48;31.90;47.80
37426;DHT22;23285;50.180;7.036;2022-08-11T14:08:37;31.70;49.20
37426;DHT22;23285;50.180;7.036;2022-08-11T14:11:23;31.70;49.20
37426;DHT22;23285;50.180;7.036;2022-08-11T14:17:18;31.90;50.00
37426;DHT22;23285;50.180;7.036;2022-08-11T14:20:07;32.40;48.90
37426;DHT22;23285;50.180;7.036;2022-08-11T14:22:54;32.60;49.10
37426;DHT22;23285;50.180;7.036;2022-08-11T14:25:40;32.80;48.40
37426;DHT22;23285;50.180;7.036;2022-08-11T14:28:46;32.90;48.40
37426;DHT22;23285;50.180;7.036;2022-08-11T14:34:22;32.90;50.10
37426;DHT22;23285;50.180;7.036;2022-08-11T14:37:13;32.50;49.70
37426;DHT22;23285;50.180;7.036;2022-08-11T14:40:00;32.80;49.00
37426;DHT22;23285;50.180;7.036;2022-08-11T14:49:13;32.60;50.30
37426;DHT22;23285;50.180;7.036;2022-08-11T14:51:59;33.10;48.40
37426;DHT22;23285;50.180;7.036;2022-08-11T14:57:51;32.50;50.40
37426;DHT22;23285;50.180;7.036;2022-08-11T15:00:37;32.70;49.20
37426;DHT22;23285;50.180;7.036;2022-08-11T15:03:26;32.30;50.00
37426;DHT22;23285;50.180;7.036;2022-08-11T15:06:12;32.40;50.40
37426;DHT22;23285;50.180;7.036;2022-08-11T15:08:57;32.60;49.40
37426;DHT22;23285;50.180;7.036;2022-08-11T15:11:43;33.00;48.20
37426;DHT22;23285;50.180;7.036;2022-08-11T15:14:48;32.80;48.60
37426;DHT22;23285;50.180;7.036;2022-08-11T15:17:54;32.80;47.90
37426;DHT22;23285;50.180;7.036;2022-08-11T15:20:40;32.50;48.50
37426;DHT22;23285;50.180;7.036;2022-08-11T15:23:43;32.40;48.90
37426;DHT22;23285;50.180;7.036;2022-08-11T15:26:51;32.10;48.90
37426;DHT22;23285;50.180;7.036;2022-08-11T15:29:59;32.40;48.80
37426;DHT22;23285;50.180;7.036;2022-08-11T15:33:05;32.60;48.10
37426;DHT22;23285;50.180;7.036;2022-08-11T15:36:13;32.60;48.90
37426;DHT22;23285;50.180;7.036;2022-08-11T15:43:37;32.70;49.30
37426;DHT22;23285;50.180;7.036;2022-08-11T15:46:17;32.70;48.10
37426;DHT22;23285;50.180;7.036;2022-08-11T15:49:14;33.10;47.30
37426;DHT22;23285;50.180;7.036;2022-08-11T15:52:09;32.70;49.30
37426;DHT22;23285;50.180;7.036;2022-08-11T15:54:55;32.10;49.00
37426;DHT22;23285;50.180;7.036;2022-08-11T15:57:46;32.00;48.40
37426;DHT22;23285;50.180;7.036;2022-08-11T16:00:53;32.00;48.50
37426;DHT22;23285;50.180;7.036;2022-08-11T16:04:00;32.10;48.00
37426;DHT22;23285;50.180;7.036;2022-08-11T16:10:05;32.10;49.50
37426;DHT22;23285;50.180;7.036;2022-08-11T16:13:02;32.20;48.30
37426;DHT22;23285;50.180;7.036;2022-08-11T16:15:51;32.80;47.50
37426;DHT22;23285;50.180;7.036;2022-08-11T16:18:57;33.10;46.70
37426;DHT22;23285;50.180;7.036;2022-08-11T16:21:44;32.90;47.20
37426;DHT22;23285;50.180;7.036;2022-08-11T16:24:40;32.90;47.90
37426;DHT22;23285;50.180;7.036;2022-08-11T16:27:31;32.40;47.30
37426;DHT22;23285;50.180;7.036;2022-08-11T16:30:18;32.10;48.30
37426;DHT22;23285;50.180;7.036;2022-08-11T16:33:03;32.00;48.80
37426;DHT22;23285;50.180;7.036;2022-08-11T16:35:49;32.10;48.90
37426;DHT22;23285;50.180;7.036;2022-08-11T16:38:55;32.10;48.30
37426;DHT22;23285;50.180;7.036;2022-08-11T16:47:50;32.20;49.10
37426;DHT22;23285;50.180;7.036;2022-08-11T16:50:36;32.20;48.30
37426;DHT22;23285;50.180;7.036;2022-08-11T16:53:22;32.20;48.60
37426;DHT22;23285;50.180;7.036;2022-08-11T16:56:08;32.00;47.80
37426;DHT22;23285;50.180;7.036;2022-08-11T16:58:56;32.10;48.80
37426;DHT22;23285;50.180;7.036;2022-08-11T17:04:50;32.60;49.00
37426;DHT22;23285;50.180;7.036;2022-08-11T17:07:57;32.20;47.60
37426;DHT22;23285;50.180;7.036;2022-08-11T17:11:04;32.30;48.50
37426;DHT22;23285;50.180;7.036;2022-08-11T17:14:14;32.10;48.60
37426;DHT22;23285;50.180;7.036;2022-08-11T17:17:02;32.40;48.60
37426;DHT22;23285;50.180;7.036;2022-08-11T17:19:51;32.30;48.90
37426;DHT22;23285;50.180;7.036;2022-08-11T17:22:37;32.50;47.70
37426;DHT22;23285;50.180;7.036;2022-08-11T17:31:14;32.60;49.10
37426;DHT22;23285;50.180;7.036;2022-08-11T17:37:23;32.60;48.40
37426;DHT22;23285;50.180;7.036;2022-08-11T17:40:10;32.50;47.20
37426;DHT22;23285;50.180;7.036;2022-08-11T17:42:58;32.60;47.80
37426;DHT22;23285;50.180;7.036;2022-08-11T17:46:03;32.20;47.50
37426;DHT22;23285;50.180;7.036;2022-08-11T17:49:08;31.70;48.10
37426;DHT22;23285;50.180;7.036;2022-08-11T17:51:54;31.40;48.20
37426;DHT22;23285;50.180;7.036;2022-08-11T17:54:57;31.50;48.80
37426;DHT22;23285;50.180;7.036;2022-08-11T17:58:02;31.50;48.10
37426;DHT22;23285;50.180;7.036;2022-08-11T18:01:07;31.50;48.40
37426;DHT22;23285;50.180;7.036;2022-08-11T18:06:40;31.00;49.90
37426;DHT22;23285;50.180;7.036;2022-08-11T18:09:26;30.90;49.40
37426;DHT22;23285;50.180;7.036;2022-08-11T18:12:29;31.10;49.20
37426;DHT22;23285;50.180;7.036;2022-08-11T18:18:37;30.50;50.30
37426;DHT22;23285;50.180;7.036;2022-08-11T18:21:44;30.20;50.30
37426;DHT22;23285;50.180;7.036;2022-08-11T18:25:02;29.80;51.00
37426;DHT22;23285;50.180;7.036;2022-08-11T18:28:10;29.60;51.80
37426;DHT22;23285;50.180;7.036;2022-08-11T18:31:15;29.30;52.10
37426;DHT22;23285;50.180;7.036;2022-08-11T18:34:25;29.20;52.60
37426;DHT22;23285;50.180;7.036;2022-08-11T18:40:38;29.10;53.80
37426;DHT22;23285;50.180;7.036;2022-08-11T18:43:45;29.20;52.50
37426;DHT22;23285;50.180;7.036;2022-08-11T18:46:50;29.40;54.40
37426;DHT22;23285;50.180;7.036;2022-08-11T18:49:56;29.40;55.30
37426;DHT22;23285;50.180;7.036;2022-08-11T18:53:04;29.50;55.10
37426;DHT22;23285;50.180;7.036;2022-08-11T18:56:08;29.30;55.30
37426;DHT22;23285;50.180;7.036;2022-08-11T18:59:14;29.40;55.40
37426;DHT22;23285;50.180;7.036;2022-08-11T19:02:22;29.30;55.40
37426;DHT22;23285;50.180;7.036;2022-08-11T19:05:29;29.20;55.50
37426;DHT22;23285;50.180;7.036;2022-08-11T19:08:39;29.10;55.90
37426;DHT22;23285;50.180;7.036;2022-08-11T19:11:45;29.00;55.80
37426;DHT22;23285;50.180;7.036;2022-08-11T19:14:50;28.80;56.00
37426;DHT22;23285;50.180;7.036;2022-08-11T19:17:54;28.50;56.10
37426;DHT22;23285;50.180;7.036;2022-08-11T19:24:06;28.20;57.10
37426;DHT22;23285;50.180;7.036;2022-08-11T19:27:11;28.10;56.80
37426;DHT22;23285;50.180;7.036;2022-08-11T19:30:15;27.90;56.90
37426;DHT22;23285;50.180;7.036;2022-08-11T19:33:19;28.00;56.80
37426;DHT22;23285;50.180;7.036;2022-08-11T19:36:24;27.80;57.00
37426;DHT22;23285;50.180;7.036;2022-08-11T19:39:29;27.80;56.90
37426;DHT22;23285;50.180;7.036;2022-08-11T19:42:33;27.60;57.40
37426;DHT22;23285;50.180;7.036;2022-08-11T19:45:38;27.50;57.40
37426;DHT22;23285;50.180;7.036;2022-08-11T19:48:44;27.30;57.60
37426;DHT22;23285;50.180;7.036;2022-08-11T20:01:02;27.10;58.70
37426;DHT22;23285;50.180;7.036;2022-08-11T20:04:07;26.90;58.40
37426;DHT22;23285;50.180;7.036;2022-08-11T20:07:10;26.70;58.50
37426;DHT22;23285;50.180;7.036;2022-08-11T20:13:21;26.50;59.00
37426;DHT22;23285;50.180;7.036;2022-08-11T20:16:25;26.50;58.80
37426;DHT22;23285;50.180;7.036;2022-08-11T20:19:30;26.20;59.50
37426;DHT22;23285;50.180;7.036;2022-08-11T20:22:36;26.00;59.90
37426;DHT22;23285;50.180;7.036;2022-08-11T20:25:40;25.90;59.70
37426;DHT22;23285;50.180;7.036;2022-08-11T20:28:45;25.80;59.80
37426;DHT22;23285;50.180;7.036;2022-08-11T20:31:48;25.90;60.10
37426;DHT22;23285;50.180;7.036;2022-08-11T20:34:53;25.90;59.90
37426;DHT22;23285;50.180;7.036;2022-08-11T20:37:59;25.70;60.20
37426;DHT22;23285;50.180;7.036;2022-08-11T20:41:04;25.60;59.80
37426;DHT22;23285;50.180;7.036;2022-08-11T20:44:09;25.40;61.10
37426;DHT22;23285;50.180;7.036;2022-08-11T20:47:14;25.30;60.90
37426;DHT22;23285;50.180;7.036;2022-08-11T20:50:19;25.30;61.80
37426;DHT22;23285;50.180;7.036;2022-08-11T20:53:24;25.10;61.90
37426;DHT22;23285;50.180;7.036;2022-08-11T20:56:30;25.20;61.50
37426;DHT22;23285;50.180;7.036;2022-08-11T20:59:34;25.40;60.70
37426;DHT22;23285;50.180;7.036;2022-08-11T21:02:39;25.30;59.40
37426;DHT22;23285;50.180;7.036;2022-08-11T21:08:49;25.00;61.10
37426;DHT22;23285;50.180;7.036;2022-08-11T21:11:56;24.80;60.00
37426;DHT22;23285;50.180;7.036;2022-08-11T21:15:02;24.70;61.80
37426;DHT22;23285;50.180;7.036;2022-08-11T21:18:06;24.80;61.50
37426;DHT22;23285;50.180;7.036;2022-08-11T21:21:12;24.60;62.10
37426;DHT22;23285;50.180;7.036;2022-08-11T21:24:19;24.70;61.70
37426;DHT22;23285;50.180;7.036;2022-08-11T21:27:24;24.80;61.90
37426;DHT22;23285;50.180;7.036;2022-08-11T21:33:34;24.70;62.50
37426;DHT22;23285;50.180;7.036;2022-08-11T21:39:46;24.30;62.50
37426;DHT22;23285;50.180;7.036;2022-08-11T21:42:51;24.10;61.80
37426;DHT22;23285;50.180;7.036;2022-08-11T21:45:56;24.10;63.10
37426;DHT22;23285;50.180;7.036;2022-08-11T21:49:01;24.10;63.00
37426;DHT22;23285;50.180;7.036;2022-08-11T21:52:05;24.20;62.70
37426;DHT22;23285;50.180;7.036;2022-08-11T21:55:10;24.10;62.90
37426;DHT22;23285;50.180;7.036;2022-08-11T21:58:14;24.10;63.40
37426;DHT22;23285;50.180;7.036;2022-08-11T22:01:19;24.10;63.30
37426;DHT22;23285;50.180;7.036;2022-08-11T22:07:28;23.80;62.30
37426;DHT22;23285;50.180;7.036;2022-08-11T22:10:32;23.80;62.20
37426;DHT22;23285;50.180;7.036;2022-08-11T22:19:44;23.90;62.30
37426;DHT22;23285;50.180;7.036;2022-08-11T22:25:52;23.90;62.40
37426;DHT22;23285;50.180;7.036;2022-08-11T22:28:56;23.50;61.50
37426;DHT22;23285;50.180;7.036;2022-08-11T22:35:05;23.80;63.30
37426;DHT22;23285;50.180;7.036;2022-08-11T22:38:11;23.70;63.50
37426;DHT22;23285;50.180;7.036;2022-08-11T22:41:15;23.50;63.40
37426;DHT22;23285;50.180;7.036;2022-08-11T22:47:24;23.60;63.60
37426;DHT22;23285;50.180;7.036;2022-08-11T22:50:28;23.30;62.80
37426;DHT22;23285;50.180;7.036;2022-08-11T22:56:39;23.30;63.80
37426;DHT22;23285;50.180;7.036;2022-08-11T22:59:43;23.00;64.10
37426;DHT22;23285;50.180;7.036;2022-08-11T23:02:48;23.10;64.00
37426;DHT22;23285;50.180;7.036;2022-08-11T23:05:52;23.00;63.10
37426;DHT22;23285;50.180;7.036;2022-08-11T23:08:56;23.10;62.60
37426;DHT22;23285;50.180;7.036;2022-08-11T23:15:05;23.10;64.50
37426;DHT22;23285;50.180;7.036;2022-08-11T23:24:19;23.00;63.80
37426;DHT22;23285;50.180;7.036;2022-08-11T23:27:24;22.60;64.90
37426;DHT22;23285;50.180;7.036;2022-08-11T23:30:29;22.50;63.60
37426;DHT22;23285;50.180;7.036;2022-08-11T23:36:39;22.30;64.50
37426;DHT22;23285;50.180;7.036;2022-08-11T23:39:43;22.20;63.60
37426;DHT22;23285;50.180;7.036;2022-08-11T23:42:47;22.20;63.20
37426;DHT22;23285;50.180;7.036;2022-08-11T23:45:51;22.10;63.40
37426;DHT22;23285;50.180;7.036;2022-08-11T23:49:00;22.10;63.20
37426;DHT22;23285;50.180;7.036;2022-08-11T23:58:13;21.50;65.80
